createdAt,value
2023-05-01T00:01:18.143Z,57.20
2023-05-01T00:04:22.576Z,57.97
2023-05-01T00:07:25.770Z,57.30
2023-05-01T00:10:28.896Z,56.30
2023-05-01T00:13:32.125Z,57.37
2023-05-01T00:16:37.334Z,57.67
2023-05-01T00:19:40.865Z,57.20
2023-05-01T00:22:43.933Z,54.47
2023-05-01T00:25:47.005Z,55.43
2023-05-01T00:28:50.793Z,57.10
2023-05-01T00:31:55.739Z,56.60
2023-05-01T00:34:58.920Z,59.50
2023-05-01T00:38:01.926Z,57.03
2023-05-01T00:41:04.993Z,57.10
2023-05-01T00:44:08.176Z,56.73
2023-05-01T00:47:12.837Z,56.60
2023-05-01T00:50:16.217Z,56.63
2023-05-01T00:53:19.788Z,54.83
2023-05-01T00:56:23.279Z,53.50
2023-05-01T00:59:26.377Z,56.47
2023-05-01T01:02:30.901Z,54.13
2023-05-01T01:05:40.226Z,53.63
2023-05-01T01:08:50.916Z,55.10
2023-05-01T01:12:04.776Z,53.27
2023-05-01T01:15:15.902Z,53.93
2023-05-01T01:18:25.925Z,53.13
2023-05-01T01:21:34.608Z,53.30
2023-05-01T01:25:10.574Z,51.83
2023-05-01T01:28:34.033Z,52.47
2023-05-01T01:31:48.648Z,52.00
2023-05-01T01:34:57.139Z,52.57
2023-05-01T01:38:05.315Z,50.53
2023-05-01T01:41:13.781Z,50.83
2023-05-01T01:44:21.914Z,50.07
2023-05-01T01:47:28.722Z,51.93
2023-05-01T01:50:35.042Z,50.80
2023-05-01T01:53:40.453Z,53.00
2023-05-01T01:56:44.679Z,50.60
2023-05-01T01:59:48.943Z,52.10
2023-05-01T02:02:53.822Z,51.77
2023-05-01T02:06:01.135Z,50.27
2023-05-01T02:09:06.550Z,49.87
2023-05-01T02:12:11.116Z,48.60
2023-05-01T02:15:16.530Z,47.37
2023-05-01T02:18:20.423Z,48.87
2023-05-01T02:21:26.457Z,49.57
2023-05-01T02:24:31.322Z,47.40
2023-05-01T02:27:39.558Z,51.13
2023-05-01T02:30:42.827Z,50.93
2023-05-01T02:33:45.863Z,50.83
2023-05-01T02:36:51.077Z,51.47
2023-05-01T02:39:54.522Z,51.37
2023-05-01T02:42:58.900Z,51.60
2023-05-01T02:46:04.770Z,53.33
2023-05-01T02:49:08.332Z,51.93
2023-05-01T02:52:13.879Z,50.97
2023-05-01T02:55:18.015Z,51.67
2023-05-01T02:58:21.593Z,52.97
2023-05-01T03:01:26.041Z,52.50
2023-05-01T03:04:29.253Z,52.07
2023-05-01T03:07:35.441Z,50.87
2023-05-01T03:10:41.697Z,50.90
2023-05-01T03:13:44.817Z,51.60
2023-05-01T03:16:48.084Z,48.27
2023-05-01T03:19:51.684Z,49.93
2023-05-01T03:22:56.168Z,52.30
2023-05-01T03:25:59.621Z,49.57
2023-05-01T03:29:02.618Z,48.67
2023-05-01T03:32:06.161Z,49.27
2023-05-01T03:35:10.805Z,47.47
2023-05-01T03:38:15.289Z,45.10
2023-05-01T03:41:18.342Z,45.27
2023-05-01T03:44:21.312Z,41.07
2023-05-01T03:47:24.545Z,43.80
2023-05-01T03:50:27.607Z,41.83
2023-05-01T03:53:32.605Z,43.27
2023-05-01T03:56:36.768Z,40.97
2023-05-01T03:59:39.767Z,29.33
2023-05-01T04:02:42.999Z,20.50
2023-05-01T04:05:46.254Z,18.40
2023-05-01T04:08:50.655Z,17.73
2023-05-01T04:11:53.653Z,16.97
2023-05-01T04:14:56.674Z,15.80
2023-05-01T04:17:59.808Z,13.30
2023-05-01T04:21:02.868Z,11.10
2023-05-01T04:24:07.648Z,10.63
2023-05-01T04:27:11.298Z,10.17
2023-05-01T04:30:14.355Z,8.70
2023-05-01T04:33:17.430Z,8.43
2023-05-01T04:36:20.557Z,7.17
2023-05-01T04:39:25.153Z,6.83
2023-05-01T04:42:32.097Z,6.47
2023-05-01T04:45:35.147Z,6.33
2023-05-01T04:48:38.196Z,7.60
2023-05-01T04:51:41.244Z,7.10
2023-05-01T04:54:45.738Z,5.77
2023-05-01T04:57:48.870Z,8.23
2023-05-01T05:00:51.937Z,5.80
2023-05-01T05:03:55.022Z,5.60
2023-05-01T05:06:58.214Z,5.20
2023-05-01T05:10:02.597Z,6.50
2023-05-01T05:13:05.601Z,7.23
2023-05-01T05:16:09.000Z,10.63
2023-05-01T05:19:12.028Z,11.43
2023-05-01T05:22:15.753Z,12.13
2023-05-01T05:25:20.530Z,12.30
2023-05-01T05:28:24.056Z,7.33
2023-05-01T05:31:27.165Z,6.17
2023-05-01T05:34:30.260Z,5.80
2023-05-01T05:37:33.338Z,7.33
2023-05-01T05:40:37.885Z,5.90
2023-05-01T05:43:40.882Z,10.50
2023-05-01T05:46:43.915Z,14.33
2023-05-01T05:49:47.035Z,9.00
2023-05-01T05:52:50.249Z,11.33
2023-05-01T05:55:54.797Z,18.63
2023-05-01T05:58:58.578Z,11.40
2023-05-01T06:02:01.910Z,8.37
2023-05-01T06:05:05.755Z,8.10
2023-05-01T06:08:10.470Z,5.70
2023-05-01T06:11:15.335Z,7.17
2023-05-01T06:14:18.524Z,7.63
2023-05-01T06:17:21.853Z,6.37
2023-05-01T06:20:25.313Z,8.77
2023-05-01T06:23:28.562Z,8.33
2023-05-01T06:26:33.156Z,8.60
2023-05-01T06:29:36.921Z,5.60
2023-05-01T06:32:42.169Z,5.87
2023-05-01T06:35:45.575Z,8.00
2023-05-01T06:38:49.428Z,7.60
2023-05-01T06:41:54.368Z,5.93
2023-05-01T06:44:57.847Z,6.03
2023-05-01T06:48:00.983Z,6.50
2023-05-01T06:51:04.024Z,9.03
2023-05-01T06:54:07.088Z,6.87
2023-05-01T06:57:11.601Z,6.30
2023-05-01T07:00:17.633Z,6.60
2023-05-01T07:03:20.737Z,6.40
2023-05-01T07:06:23.850Z,6.47
2023-05-01T07:09:26.842Z,7.50
2023-05-01T07:12:31.589Z,7.53
2023-05-01T07:15:34.625Z,7.50
2023-05-01T07:18:37.979Z,7.50
2023-05-01T07:21:42.797Z,12.23
2023-05-01T07:24:45.930Z,13.80
2023-05-01T07:27:50.437Z,15.03
2023-05-01T07:30:53.544Z,17.90
2023-05-01T07:33:56.832Z,9.13
2023-05-01T07:36:59.902Z,13.47
2023-05-01T07:40:02.970Z,18.23
2023-05-01T07:43:07.472Z,10.70
2023-05-01T07:46:11.765Z,10.73
2023-05-01T07:49:14.928Z,11.57
2023-05-01T07:52:17.960Z,12.30
2023-05-01T07:55:22.930Z,11.90
2023-05-01T07:58:27.442Z,8.37
2023-05-01T08:01:30.673Z,13.23
2023-05-01T08:04:33.764Z,16.50
2023-05-01T08:07:36.946Z,12.90
2023-05-01T08:10:40.009Z,34.37
2023-05-01T08:13:44.577Z,15.47
2023-05-01T08:16:47.647Z,14.73
2023-05-01T08:19:51.243Z,20.57
2023-05-01T08:22:54.421Z,16.73
2023-05-01T08:25:58.064Z,21.37
2023-05-01T08:29:02.502Z,21.83
2023-05-01T08:32:05.680Z,11.47
2023-05-01T08:35:09.731Z,10.27
2023-05-01T08:38:13.147Z,18.17
2023-05-01T08:41:22.967Z,17.70
2023-05-01T08:44:29.156Z,22.23
2023-05-01T08:47:33.067Z,20.73
2023-05-01T08:50:37.676Z,17.30
2023-05-01T08:53:42.584Z,12.53
2023-05-01T08:56:47.860Z,8.57
2023-05-01T08:59:54.726Z,10.97
2023-05-01T09:03:02.524Z,12.67
2023-05-01T09:06:06.095Z,9.53
2023-05-01T09:09:09.169Z,10.60
2023-05-01T09:12:22.832Z,10.90
2023-05-01T09:15:28.163Z,7.20
2023-05-01T09:18:31.923Z,9.60
2023-05-01T09:21:35.047Z,7.07
2023-05-01T09:24:38.372Z,7.37
2023-05-01T09:27:41.474Z,8.90
2023-05-01T09:30:46.446Z,7.77
2023-05-01T09:33:59.808Z,8.17
2023-05-01T09:37:03.020Z,7.43
2023-05-01T09:40:08.676Z,9.37
2023-05-01T09:43:11.926Z,6.50
2023-05-01T09:46:16.997Z,6.87
2023-05-01T09:49:20.679Z,7.90
2023-05-01T09:52:23.799Z,7.20
2023-05-01T09:55:26.807Z,6.53
2023-05-01T09:58:30.084Z,7.03
2023-05-01T10:01:41.726Z,5.53
2023-05-01T10:04:44.917Z,5.63
2023-05-01T10:07:58.712Z,4.53
2023-05-01T10:11:05.367Z,5.00
2023-05-01T10:14:09.795Z,4.47
2023-05-01T10:17:20.245Z,7.93
2023-05-01T10:20:24.314Z,3.90
2023-05-01T10:23:27.424Z,4.33
2023-05-01T10:26:31.051Z,4.33
2023-05-01T10:29:36.718Z,5.03
2023-05-01T10:32:43.422Z,4.90
2023-05-01T10:35:56.091Z,4.80
2023-05-01T10:38:59.146Z,3.90
2023-05-01T10:42:05.727Z,4.63
2023-05-01T10:45:30.581Z,4.70
2023-05-01T10:52:08.073Z,4.60
2023-05-01T10:55:36.719Z,4.63
2023-05-01T10:58:59.585Z,5.30
2023-05-01T11:02:23.686Z,5.37
2023-05-01T11:06:08.455Z,4.83
2023-05-01T11:09:40.194Z,4.77
2023-05-01T11:12:52.621Z,5.13
2023-05-01T11:15:55.759Z,5.00
2023-05-01T11:18:59.341Z,5.03
2023-05-01T11:22:02.526Z,4.43
2023-05-01T11:25:23.537Z,4.20
2023-05-01T11:28:26.702Z,4.13
2023-05-01T11:31:30.293Z,4.93
2023-05-01T11:34:38.174Z,4.37
2023-05-01T11:37:42.928Z,3.90
2023-05-01T11:40:55.565Z,3.80
2023-05-01T11:43:59.800Z,4.97
2023-05-01T11:47:03.282Z,3.17
2023-05-01T11:50:08.110Z,3.20
2023-05-01T11:53:16.054Z,2.83
2023-05-01T11:56:26.769Z,3.63
2023-05-01T11:59:30.851Z,3.00
2023-05-01T12:02:34.072Z,2.50
2023-05-01T12:05:38.916Z,2.43
2023-05-01T12:08:51.074Z,2.33
2023-05-01T12:11:55.936Z,2.30
2023-05-01T12:14:59.323Z,2.20
2023-05-01T12:18:02.830Z,1.93
2023-05-01T12:21:06.028Z,2.20
2023-05-01T12:24:10.532Z,2.67
2023-05-01T12:27:15.078Z,2.00
2023-05-01T12:30:26.792Z,1.70
2023-05-01T12:33:30.190Z,2.10
2023-05-01T12:36:35.158Z,2.00
2023-05-01T12:39:40.500Z,1.90
2023-05-01T12:42:45.025Z,1.60
2023-05-01T12:45:52.853Z,1.67
2023-05-01T12:48:56.257Z,2.90
2023-05-01T12:52:01.419Z,1.73
2023-05-01T12:55:05.893Z,1.93
2023-05-01T12:58:10.734Z,2.20
2023-05-01T13:01:14.275Z,2.63
2023-05-01T13:04:22.690Z,1.80
2023-05-01T13:07:25.962Z,1.83
2023-05-01T13:10:35.518Z,1.80
2023-05-01T13:13:41.274Z,4.73
2023-05-01T13:16:47.813Z,2.10
2023-05-01T13:19:55.922Z,1.80
2023-05-01T13:22:59.310Z,2.60
2023-05-01T13:26:03.631Z,1.90
2023-05-01T13:29:08.251Z,1.80
2023-05-01T13:32:12.782Z,2.60
2023-05-01T13:35:24.528Z,2.83
2023-05-01T13:38:27.693Z,3.03
2023-05-01T13:41:31.166Z,2.37
2023-05-01T13:44:44.521Z,2.23
2023-05-01T13:47:47.745Z,2.67
2023-05-01T13:50:50.836Z,2.10
2023-05-01T13:53:54.615Z,2.20
2023-05-01T13:56:57.966Z,1.80
2023-05-01T14:00:02.369Z,2.30
2023-05-01T14:03:05.626Z,3.33
2023-05-01T14:06:10.989Z,6.73
2023-05-01T14:09:14.613Z,5.33
2023-05-01T14:12:20.037Z,6.37
2023-05-01T14:15:25.440Z,4.33
2023-05-01T14:18:28.752Z,4.13
2023-05-01T14:21:32.000Z,3.50
2023-05-01T14:24:37.749Z,4.80
2023-05-01T14:27:40.911Z,4.03
2023-05-01T14:30:45.511Z,3.03
2023-05-01T14:33:48.899Z,2.53
2023-05-01T14:36:51.918Z,4.90
2023-05-01T14:39:54.996Z,12.70
2023-05-01T14:42:59.015Z,9.30
2023-05-01T14:46:03.923Z,9.07
2023-05-01T14:49:07.292Z,8.20
2023-05-01T14:52:12.333Z,4.10
2023-05-01T14:55:19.498Z,4.27
2023-05-01T14:58:22.684Z,8.97
2023-05-01T15:01:27.746Z,4.50
2023-05-01T15:04:31.015Z,3.60
2023-05-01T15:07:34.172Z,2.43
2023-05-01T15:10:38.704Z,3.80
2023-05-01T15:13:42.766Z,2.93
2023-05-01T15:16:47.896Z,3.83
2023-05-01T15:19:51.293Z,3.07
2023-05-01T15:22:54.720Z,3.47
2023-05-01T15:25:58.156Z,4.33
2023-05-01T15:29:01.310Z,2.33
2023-05-01T15:32:12.577Z,5.10
2023-05-01T15:35:16.785Z,2.73
2023-05-01T15:38:21.769Z,2.00
2023-05-01T15:41:25.144Z,2.40
2023-05-01T15:44:28.780Z,2.10
2023-05-01T15:47:33.285Z,2.57
2023-05-01T15:50:36.498Z,2.40
2023-05-01T15:53:39.581Z,8.17
2023-05-01T15:56:42.855Z,2.63
2023-05-01T15:59:46.072Z,3.47
2023-05-01T16:02:50.657Z,2.70
2023-05-01T16:05:59.883Z,2.70
2023-05-01T16:09:05.040Z,2.80
2023-05-01T16:12:08.590Z,3.80
2023-05-01T16:15:13.279Z,2.50
2023-05-01T16:18:21.464Z,3.63
2023-05-01T16:21:25.083Z,2.20
2023-05-01T16:24:28.176Z,2.10
2023-05-01T16:27:31.532Z,2.77
2023-05-01T16:30:34.625Z,2.70
2023-05-01T16:33:40.925Z,3.13
2023-05-01T16:36:44.449Z,2.07
2023-05-01T16:39:48.676Z,3.63
2023-05-01T16:42:53.529Z,2.07
2023-05-01T16:45:59.127Z,2.63
2023-05-01T16:49:03.684Z,2.77
2023-05-01T16:52:07.196Z,2.30
2023-05-01T16:55:10.578Z,2.80
2023-05-01T16:58:13.672Z,2.90
2023-05-01T17:01:17.490Z,3.40
2023-05-01T17:04:22.728Z,3.67
2023-05-01T17:07:25.826Z,3.37
2023-05-01T17:10:29.461Z,6.03
2023-05-01T17:13:32.509Z,3.03
2023-05-01T17:16:35.829Z,2.90
2023-05-01T17:19:40.478Z,3.00
2023-05-01T17:22:44.585Z,2.93
2023-05-01T17:25:47.754Z,2.90
2023-05-01T17:28:50.997Z,2.97
2023-05-01T17:31:54.262Z,3.03
2023-05-01T17:34:59.392Z,2.90
2023-05-01T17:38:02.680Z,2.90
2023-05-01T17:41:05.795Z,2.90
2023-05-01T17:44:08.954Z,3.80
2023-05-01T17:47:12.021Z,3.23
2023-05-01T17:50:16.666Z,3.20
2023-05-01T17:53:19.768Z,3.77
2023-05-01T17:56:22.963Z,3.60
2023-05-01T17:59:26.697Z,5.20
2023-05-01T18:02:31.405Z,3.27
2023-05-01T18:05:36.172Z,3.77
2023-05-01T18:08:39.713Z,4.10
2023-05-01T18:11:47.517Z,4.40
2023-05-01T18:14:55.742Z,4.27
2023-05-01T18:18:00.448Z,4.93
2023-05-01T18:21:10.797Z,3.50
2023-05-01T18:24:14.079Z,4.03
2023-05-01T18:27:17.210Z,5.90
2023-05-01T18:30:20.822Z,3.90
2023-05-01T18:33:23.975Z,5.20
2023-05-01T18:36:28.597Z,4.20
2023-05-01T18:39:31.799Z,4.33
2023-05-01T18:42:34.950Z,4.80
2023-05-01T18:45:37.960Z,3.40
2023-05-01T18:48:41.421Z,10.20
2023-05-01T18:51:46.018Z,3.43
2023-05-01T18:54:49.295Z,3.63
2023-05-01T18:57:52.631Z,4.00
2023-05-01T19:00:56.776Z,4.87
2023-05-01T19:04:00.149Z,5.30
2023-05-01T19:07:05.241Z,5.80
2023-05-01T19:10:09.553Z,5.50
2023-05-01T19:13:12.827Z,5.97
2023-05-01T19:16:15.942Z,5.43
2023-05-01T19:19:19.185Z,5.60
2023-05-01T19:22:23.728Z,4.40
2023-05-01T19:25:26.804Z,4.57
2023-05-01T19:28:29.927Z,7.50
2023-05-01T19:31:33.226Z,5.03
2023-05-01T19:34:36.453Z,6.00
2023-05-01T19:37:41.230Z,4.50
2023-05-01T19:40:45.084Z,4.57
2023-05-01T19:43:48.206Z,4.13
2023-05-01T19:46:51.845Z,4.23
2023-05-01T19:49:54.955Z,4.03
2023-05-01T19:53:00.804Z,4.40
2023-05-01T19:56:03.907Z,4.40
2023-05-01T19:59:06.975Z,4.87
2023-05-01T20:02:10.257Z,4.70
2023-05-01T20:05:13.932Z,5.27
2023-05-01T20:08:18.435Z,5.83
2023-05-01T20:11:21.530Z,5.93
2023-05-01T20:14:24.644Z,5.13
2023-05-01T20:17:27.976Z,5.87
2023-05-01T20:20:32.073Z,5.80
2023-05-01T20:23:36.488Z,6.50
2023-05-01T20:26:39.597Z,7.13
2023-05-01T20:29:43.054Z,7.20
2023-05-01T20:32:46.242Z,7.70
2023-05-01T20:35:49.582Z,9.50
2023-05-01T20:38:57.800Z,9.13
2023-05-01T20:42:00.990Z,10.60
2023-05-01T20:45:04.654Z,11.83
2023-05-01T20:48:08.050Z,12.30
2023-05-01T20:51:12.148Z,11.63
2023-05-01T20:54:16.686Z,12.00
2023-05-01T20:57:20.153Z,14.10
2023-05-01T21:00:23.274Z,13.87
2023-05-01T21:03:26.401Z,14.50
2023-05-01T21:06:32.457Z,13.00
2023-05-01T21:09:37.035Z,16.07
2023-05-01T21:12:40.312Z,15.63
2023-05-01T21:15:43.437Z,15.80
2023-05-01T21:18:46.809Z,16.37
2023-05-01T21:21:50.143Z,15.70
2023-05-01T21:24:56.338Z,17.17
2023-05-01T21:28:02.039Z,17.20
2023-05-01T21:31:05.405Z,17.03
2023-05-01T21:34:09.942Z,17.07
2023-05-01T21:37:18.552Z,16.97
2023-05-01T21:40:23.234Z,18.67
2023-05-01T21:43:26.295Z,18.40
2023-05-01T21:46:29.383Z,19.47
2023-05-01T21:49:32.821Z,19.87
2023-05-01T21:52:36.302Z,18.37
2023-05-01T21:55:40.776Z,17.90
2023-05-01T21:58:44.036Z,18.80
2023-05-01T22:01:47.117Z,18.57
2023-05-01T22:04:54.629Z,19.50
2023-05-01T22:07:57.701Z,19.30
2023-05-01T22:11:02.566Z,19.33
2023-05-01T22:14:05.625Z,18.07
2023-05-01T22:17:08.845Z,18.90
2023-05-01T22:20:12.782Z,18.30
2023-05-01T22:23:15.795Z,17.73
2023-05-01T22:26:20.221Z,18.20
2023-05-01T22:29:32.394Z,19.80
2023-05-01T22:32:36.078Z,17.87
2023-05-01T22:35:39.623Z,18.70
2023-05-01T22:38:43.030Z,18.30
2023-05-01T22:41:48.562Z,18.37
2023-05-01T22:44:52.094Z,17.97
2023-05-01T22:47:55.537Z,18.33
2023-05-01T22:50:58.818Z,18.07
2023-05-01T22:54:02.084Z,18.60
2023-05-01T22:57:06.633Z,17.87
2023-05-01T23:00:13.014Z,17.03
2023-05-01T23:03:16.277Z,17.17
2023-05-01T23:06:20.098Z,19.30
2023-05-01T23:09:23.277Z,16.07
2023-05-01T23:12:27.936Z,17.33
2023-05-01T23:15:31.028Z,15.70
2023-05-01T23:18:34.497Z,16.40
2023-05-01T23:21:38.296Z,16.43
2023-05-01T23:24:47.653Z,16.20
2023-05-01T23:27:55.096Z,16.80
2023-05-01T23:31:00.131Z,16.60
2023-05-01T23:34:03.792Z,16.03
2023-05-01T23:37:06.969Z,15.77
2023-05-01T23:40:10.722Z,15.57
2023-05-01T23:43:15.892Z,16.60
2023-05-01T23:46:19.136Z,15.53
2023-05-01T23:49:22.234Z,14.70
2023-05-01T23:52:25.364Z,15.00
2023-05-01T23:55:28.482Z,14.87
2023-05-01T23:58:33.066Z,14.70
